sensor_id;sensor_type;location;lat;lon;timestamp;pressure;altitude;pressure_sealevel;temperature;humidity
53270;BME280;39159;45.634;9.420;2022-09-27T00:01:47;97485.13;;;14.38;100.00
53270;BME280;39159;45.634;9.420;2022-09-27T00:04:12;97473.63;;;14.28;100.00
53270;BME280;39159;45.634;9.420;2022-09-27T00:06:38;97462.91;;;14.20;100.00
53270;BME280;39159;45.634;9.420;2022-09-27T00:09:03;97456.63;;;14.19;100.00
53270;BME280;39159;45.634;9.420;2022-09-27T00:11:34;97455.69;;;14.12;100.00
53270;BME280;39159;45.634;9.420;2022-09-27T00:14:00;97451.75;;;14.09;100.00
53270;BME280;39159;45.634;9.420;2022-09-27T00:16:28;97450.06;;;14.01;100.00
53270;BME280;39159;45.634;9.420;2022-09-27T00:19:03;97454.69;;;13.97;100.00
53270;BME280;39159;45.634;9.420;2022-09-27T00:21:29;97447.25;;;13.97;100.00
53270;BME280;39159;45.634;9.420;2022-09-27T00:23:55;97442.53;;;13.94;100.00
53270;BME280;39159;45.634;9.420;2022-09-27T00:26:21;97436.97;;;13.91;100.00
53270;BME280;39159;45.634;9.420;2022-09-27T00:28:47;97424.03;;;13.91;100.00
53270;BME280;39159;45.634;9.420;2022-09-27T00:31:17;97429.84;;;13.86;100.00
53270;BME280;39159;45.634;9.420;2022-09-27T00:33:45;97430.69;;;13.90;100.00
53270;BME280;39159;45.634;9.420;2022-09-27T00:36:11;97427.22;;;13.93;100.00
53270;BME280;39159;45.634;9.420;2022-09-27T00:38:39;97420.16;;;13.92;100.00
53270;BME280;39159;45.634;9.420;2022-09-27T00:41:05;97430.81;;;13.97;100.00
53270;BME280;39159;45.634;9.420;2022-09-27T00:43:46;97414.53;;;13.85;100.00
53270;BME280;39159;45.634;9.420;2022-09-27T00:46:16;97425.56;;;13.88;100.00
53270;BME280;39159;45.634;9.420;2022-09-27T00:48:42;97407.97;;;13.89;100.00
53270;BME280;39159;45.634;9.420;2022-09-27T00:51:08;97405.22;;;13.89;100.00
53270;BME280;39159;45.634;9.420;2022-09-27T00:53:44;97406.81;;;13.91;100.00
53270;BME280;39159;45.634;9.420;2022-09-27T00:56:18;97404.41;;;13.89;100.00
53270;BME280;39159;45.634;9.420;2022-09-27T00:58:49;97405.53;;;13.84;100.00
53270;BME280;39159;45.634;9.420;2022-09-27T01:01:16;97401.09;;;13.76;100.00
53270;BME280;39159;45.634;9.420;2022-09-27T01:06:32;97402.91;;;13.68;100.00
53270;BME280;39159;45.634;9.420;2022-09-27T01:08:57;97398.22;;;13.69;100.00
53270;BME280;39159;45.634;9.420;2022-09-27T01:17:00;97398.97;;;13.66;100.00
53270;BME280;39159;45.634;9.420;2022-09-27T01:22:16;97384.09;;;13.67;100.00
53270;BME280;39159;45.634;9.420;2022-09-27T01:24:59;97371.13;;;13.64;100.00
53270;BME280;39159;45.634;9.420;2022-09-27T01:30:25;97356.25;;;13.65;100.00
53270;BME280;39159;45.634;9.420;2022-09-27T01:33:01;97356.56;;;13.60;100.00
53270;BME280;39159;45.634;9.420;2022-09-27T01:35:38;97355.41;;;13.61;100.00
53270;BME280;39159;45.634;9.420;2022-09-27T01:41:45;97357.78;;;13.62;100.00
53270;BME280;39159;45.634;9.420;2022-09-27T01:44:15;97355.09;;;13.66;100.00
53270;BME280;39159;45.634;9.420;2022-09-27T01:46:47;97341.03;;;13.67;100.00
53270;BME280;39159;45.634;9.420;2022-09-27T01:49:17;97338.66;;;13.66;100.00
53270;BME280;39159;45.634;9.420;2022-09-27T01:51:54;97339.78;;;13.65;100.00
53270;BME280;39159;45.634;9.420;2022-09-27T01:54:29;97344.81;;;13.59;100.00
53270;BME280;39159;45.634;9.420;2022-09-27T01:56:57;97334.22;;;13.58;100.00
53270;BME280;39159;45.634;9.420;2022-09-27T01:59:34;97332.69;;;13.60;100.00
53270;BME280;39159;45.634;9.420;2022-09-27T02:02:05;97325.69;;;13.63;100.00
53270;BME280;39159;45.634;9.420;2022-09-27T02:04:32;97328.44;;;13.63;100.00
53270;BME280;39159;45.634;9.420;2022-09-27T02:07:17;97323.75;;;13.63;100.00
53270;BME280;39159;45.634;9.420;2022-09-27T02:09:52;97319.78;;;13.61;100.00
53270;BME280;39159;45.634;9.420;2022-09-27T02:12:24;97307.59;;;13.58;100.00
53270;BME280;39159;45.634;9.420;2022-09-27T02:14:55;97314.59;;;13.56;100.00
53270;BME280;39159;45.634;9.420;2022-09-27T02:20:26;97298.16;;;13.56;100.00
53270;BME280;39159;45.634;9.420;2022-09-27T02:23:16;97302.00;;;13.51;100.00
53270;BME280;39159;45.634;9.420;2022-09-27T02:25:57;97297.19;;;13.44;100.00
53270;BME280;39159;45.634;9.420;2022-09-27T02:31:31;97284.94;;;13.38;100.00
53270;BME280;39159;45.634;9.420;2022-09-27T02:34:17;97279.91;;;13.40;100.00
53270;BME280;39159;45.634;9.420;2022-09-27T02:36:43;97272.84;;;13.39;100.00
53270;BME280;39159;45.634;9.420;2022-09-27T02:39:10;97274.75;;;13.35;100.00
53270;BME280;39159;45.634;9.420;2022-09-27T02:41:36;97269.63;;;13.34;100.00
53270;BME280;39159;45.634;9.420;2022-09-27T02:44:05;97273.16;;;13.34;100.00
53270;BME280;39159;45.634;9.420;2022-09-27T02:55:11;97275.50;;;13.59;100.00
53270;BME280;39159;45.634;9.420;2022-09-27T03:01:01;97262.69;;;13.66;100.00
53270;BME280;39159;45.634;9.420;2022-09-27T03:03:38;97258.81;;;13.71;100.00
53270;BME280;39159;45.634;9.420;2022-09-27T03:06:09;97263.09;;;13.68;100.00
53270;BME280;39159;45.634;9.420;2022-09-27T03:08:36;97264.63;;;13.66;100.00
53270;BME280;39159;45.634;9.420;2022-09-27T03:11:03;97249.72;;;13.63;100.00
53270;BME280;39159;45.634;9.420;2022-09-27T03:13:29;97264.16;;;13.60;100.00
53270;BME280;39159;45.634;9.420;2022-09-27T03:15:55;97258.63;;;13.57;100.00
53270;BME280;39159;45.634;9.420;2022-09-27T03:18:20;97270.75;;;13.56;100.00
53270;BME280;39159;45.634;9.420;2022-09-27T03:20:46;97274.16;;;13.49;100.00
53270;BME280;39159;45.634;9.420;2022-09-27T03:23:11;97283.59;;;13.52;100.00
53270;BME280;39159;45.634;9.420;2022-09-27T03:25:37;97276.22;;;13.56;100.00
53270;BME280;39159;45.634;9.420;2022-09-27T03:28:03;97278.28;;;13.62;100.00
53270;BME280;39159;45.634;9.420;2022-09-27T03:30:28;97273.97;;;13.61;100.00
53270;BME280;39159;45.634;9.420;2022-09-27T03:32:54;97268.81;;;13.56;100.00
53270;BME280;39159;45.634;9.420;2022-09-27T03:35:19;97273.91;;;13.58;100.00
53270;BME280;39159;45.634;9.420;2022-09-27T03:37:45;97272.00;;;13.62;100.00
53270;BME280;39159;45.634;9.420;2022-09-27T03:40:12;97264.97;;;13.61;100.00
53270;BME280;39159;45.634;9.420;2022-09-27T03:42:38;97269.34;;;13.65;100.00
53270;BME280;39159;45.634;9.420;2022-09-27T03:45:04;97269.34;;;13.65;100.00
53270;BME280;39159;45.634;9.420;2022-09-27T03:47:29;97263.78;;;13.62;100.00
53270;BME280;39159;45.634;9.420;2022-09-27T03:49:55;97262.16;;;13.57;100.00
53270;BME280;39159;45.634;9.420;2022-09-27T03:52:20;97255.66;;;13.42;100.00
53270;BME280;39159;45.634;9.420;2022-09-27T03:54:46;97259.56;;;13.41;100.00
53270;BME280;39159;45.634;9.420;2022-09-27T03:57:12;97254.09;;;13.41;100.00
53270;BME280;39159;45.634;9.420;2022-09-27T03:59:38;97253.31;;;13.41;100.00
53270;BME280;39159;45.634;9.420;2022-09-27T04:02:03;97256.47;;;13.43;100.00
53270;BME280;39159;45.634;9.420;2022-09-27T04:04:28;97254.13;;;13.45;100.00
53270;BME280;39159;45.634;9.420;2022-09-27T04:06:54;97247.94;;;13.48;100.00
53270;BME280;39159;45.634;9.420;2022-09-27T04:09:20;97254.13;;;13.45;100.00
53270;BME280;39159;45.634;9.420;2022-09-27T04:11:45;97247.84;;;13.41;100.00
53270;BME280;39159;45.634;9.420;2022-09-27T04:14:11;97247.66;;;13.30;100.00
53270;BME280;39159;45.634;9.420;2022-09-27T04:16:37;97250.97;;;13.20;100.00
53270;BME280;39159;45.634;9.420;2022-09-27T04:19:05;97248.03;;;13.05;100.00
53270;BME280;39159;45.634;9.420;2022-09-27T04:21:32;97251.66;;;12.90;100.00
53270;BME280;39159;45.634;9.420;2022-09-27T04:23:57;97246.50;;;12.85;100.00
53270;BME280;39159;45.634;9.420;2022-09-27T04:26:23;97247.06;;;12.94;100.00
53270;BME280;39159;45.634;9.420;2022-09-27T04:28:50;97251.44;;;12.99;100.00
53270;BME280;39159;45.634;9.420;2022-09-27T04:31:16;97255.31;;;12.98;100.00
53270;BME280;39159;45.634;9.420;2022-09-27T04:33:42;97250.34;;;13.03;100.00
53270;BME280;39159;45.634;9.420;2022-09-27T04:36:18;97247.28;;;13.09;100.00
53270;BME280;39159;45.634;9.420;2022-09-27T04:38:52;97253.06;;;13.03;100.00
53270;BME280;39159;45.634;9.420;2022-09-27T04:41:18;97243.41;;;13.10;100.00
53270;BME280;39159;45.634;9.420;2022-09-27T04:43:46;97242.59;;;13.09;100.00
53270;BME280;39159;45.634;9.420;2022-09-27T04:46:11;97240.94;;;13.04;100.00
53270;BME280;39159;45.634;9.420;2022-09-27T04:48:38;97238.94;;;13.01;100.00
53270;BME280;39159;45.634;9.420;2022-09-27T04:51:03;97240.16;;;13.04;100.00
53270;BME280;39159;45.634;9.420;2022-09-27T04:53:30;97236.28;;;13.05;100.00
53270;BME280;39159;45.634;9.420;2022-09-27T04:55:56;97242.59;;;13.09;100.00
53270;BME280;39159;45.634;9.420;2022-09-27T04:58:21;97242.97;;;13.07;100.00
53270;BME280;39159;45.634;9.420;2022-09-27T05:00:47;97251.22;;;13.11;100.00
53270;BME280;39159;45.634;9.420;2022-09-27T05:03:14;97251.72;;;13.17;100.00
53270;BME280;39159;45.634;9.420;2022-09-27T05:05:40;97243.81;;;13.12;100.00
53270;BME280;39159;45.634;9.420;2022-09-27T05:08:06;97247.69;;;13.11;100.00
53270;BME280;39159;45.634;9.420;2022-09-27T05:10:31;97249.16;;;13.04;100.00
53270;BME280;39159;45.634;9.420;2022-09-27T05:12:57;97254.22;;;13.02;100.00
53270;BME280;39159;45.634;9.420;2022-09-27T05:15:24;97250.44;;;13.11;100.00
53270;BME280;39159;45.634;9.420;2022-09-27T05:17:50;97249.41;;;13.19;100.00
53270;BME280;39159;45.634;9.420;2022-09-27T05:20:16;97243.53;;;13.20;100.00
53270;BME280;39159;45.634;9.420;2022-09-27T05:22:43;97254.06;;;13.18;100.00
53270;BME280;39159;45.634;9.420;2022-09-27T05:25:09;97259.75;;;13.06;100.00
53270;BME280;39159;45.634;9.420;2022-09-27T05:27:35;97262.81;;;13.01;100.00
53270;BME280;39159;45.634;9.420;2022-09-27T05:30:00;97258.03;;;12.98;100.00
53270;BME280;39159;45.634;9.420;2022-09-27T05:32:26;97268.28;;;13.01;100.00
53270;BME280;39159;45.634;9.420;2022-09-27T05:34:53;97262.38;;;12.99;100.00
53270;BME280;39159;45.634;9.420;2022-09-27T05:37:19;97256.53;;;13.00;100.00
53270;BME280;39159;45.634;9.420;2022-09-27T05:39:44;97260.94;;;13.05;100.00
53270;BME280;39159;45.634;9.420;2022-09-27T05:42:11;97259.41;;;13.07;100.00
53270;BME280;39159;45.634;9.420;2022-09-27T05:44:40;97253.50;;;13.05;100.00
53270;BME280;39159;45.634;9.420;2022-09-27T05:47:05;97258.53;;;13.03;100.00
53270;BME280;39159;45.634;9.420;2022-09-27T05:49:31;97255.44;;;13.05;100.00
53270;BME280;39159;45.634;9.420;2022-09-27T05:51:57;97253.97;;;13.11;100.00
53270;BME280;39159;45.634;9.420;2022-09-27T05:54:23;97256.53;;;13.23;100.00
53270;BME280;39159;45.634;9.420;2022-09-27T05:56:48;97248.50;;;13.34;100.00
53270;BME280;39159;45.634;9.420;2022-09-27T05:59:15;97245.78;;;13.34;100.00
53270;BME280;39159;45.634;9.420;2022-09-27T06:01:41;97249.97;;;13.28;100.00
53270;BME280;39159;45.634;9.420;2022-09-27T06:04:06;97250.25;;;13.23;100.00
53270;BME280;39159;45.634;9.420;2022-09-27T06:06:35;97248.34;;;13.27;100.00
53270;BME280;39159;45.634;9.420;2022-09-27T06:09:01;97251.47;;;13.25;100.00
53270;BME280;39159;45.634;9.420;2022-09-27T06:11:26;97251.84;;;13.24;100.00
53270;BME280;39159;45.634;9.420;2022-09-27T06:13:52;97250.19;;;13.19;100.00
53270;BME280;39159;45.634;9.420;2022-09-27T06:16:18;97254.03;;;13.15;100.00
53270;BME280;39159;45.634;9.420;2022-09-27T06:18:43;97256.47;;;13.20;100.00
53270;BME280;39159;45.634;9.420;2022-09-27T06:21:09;97260.94;;;13.28;100.00
53270;BME280;39159;45.634;9.420;2022-09-27T06:23:34;97253.81;;;13.27;100.00
53270;BME280;39159;45.634;9.420;2022-09-27T06:26:04;97259.03;;;13.32;100.00
53270;BME280;39159;45.634;9.420;2022-09-27T06:28:31;97265.84;;;13.42;100.00
53270;BME280;39159;45.634;9.420;2022-09-27T06:30:59;97265.53;;;13.47;100.00
53270;BME280;39159;45.634;9.420;2022-09-27T06:33:25;97262.06;;;13.50;100.00
53270;BME280;39159;45.634;9.420;2022-09-27T06:35:52;97258.41;;;13.42;100.00
53270;BME280;39159;45.634;9.420;2022-09-27T06:38:18;97259.22;;;13.43;100.00
53270;BME280;39159;45.634;9.420;2022-09-27T06:40:45;97265.06;;;13.41;100.00
53270;BME280;39159;45.634;9.420;2022-09-27T06:43:13;97265.41;;;13.40;100.00
53270;BME280;39159;45.634;9.420;2022-09-27T06:45:39;97271.69;;;13.40;100.00
53270;BME280;39159;45.634;9.420;2022-09-27T06:48:07;97270.63;;;13.48;100.00
53270;BME280;39159;45.634;9.420;2022-09-27T06:50:34;97270.81;;;13.59;100.00
53270;BME280;39159;45.634;9.420;2022-09-27T06:53:01;97278.34;;;13.66;100.00
53270;BME280;39159;45.634;9.420;2022-09-27T06:55:26;97277.84;;;13.60;100.00
53270;BME280;39159;45.634;9.420;2022-09-27T06:57:56;97275.38;;;13.52;100.00
53270;BME280;39159;45.634;9.420;2022-09-27T07:00:41;97281.66;;;13.52;100.00
53270;BME280;39159;45.634;9.420;2022-09-27T07:03:08;97289.06;;;13.52;100.00
53270;BME280;39159;45.634;9.420;2022-09-27T07:05:36;97283.72;;;13.59;100.00
53270;BME280;39159;45.634;9.420;2022-09-27T07:08:02;97276.72;;;13.61;100.00
53270;BME280;39159;45.634;9.420;2022-09-27T07:10:32;97284.97;;;13.65;100.00
53270;BME280;39159;45.634;9.420;2022-09-27T07:15:30;97289.72;;;13.68;100.00
53270;BME280;39159;45.634;9.420;2022-09-27T07:17:57;97284.00;;;13.77;100.00
53270;BME280;39159;45.634;9.420;2022-09-27T07:20:26;97283.16;;;13.73;100.00
53270;BME280;39159;45.634;9.420;2022-09-27T07:22:53;97287.94;;;13.79;100.00
53270;BME280;39159;45.634;9.420;2022-09-27T07:25:19;97285.66;;;13.85;100.00
53270;BME280;39159;45.634;9.420;2022-09-27T07:27:45;97285.28;;;13.86;100.00
53270;BME280;39159;45.634;9.420;2022-09-27T07:30:11;97285.63;;;14.12;100.00
53270;BME280;39159;45.634;9.420;2022-09-27T07:32:37;97291.31;;;14.26;100.00
53270;BME280;39159;45.634;9.420;2022-09-27T07:35:04;97294.56;;;14.69;100.00
53270;BME280;39159;45.634;9.420;2022-09-27T07:37:34;97300.47;;;15.08;100.00
53270;BME280;39159;45.634;9.420;2022-09-27T07:40:00;97292.44;;;15.30;100.00
53270;BME280;39159;45.634;9.420;2022-09-27T07:42:27;97293.59;;;15.29;100.00
53270;BME280;39159;45.634;9.420;2022-09-27T07:44:56;97302.75;;;15.44;100.00
53270;BME280;39159;45.634;9.420;2022-09-27T07:47:22;97306.28;;;15.44;100.00
53270;BME280;39159;45.634;9.420;2022-09-27T07:49:49;97304.56;;;15.25;100.00
53270;BME280;39159;45.634;9.420;2022-09-27T07:52:17;97303.34;;;15.23;100.00
53270;BME280;39159;45.634;9.420;2022-09-27T07:54:43;97302.63;;;15.29;100.00
53270;BME280;39159;45.634;9.420;2022-09-27T07:57:08;97306.66;;;15.91;100.00
53270;BME280;39159;45.634;9.420;2022-09-27T07:59:35;97297.09;;;16.36;100.00
53270;BME280;39159;45.634;9.420;2022-09-27T08:02:00;97311.75;;;16.66;100.00
53270;BME280;39159;45.634;9.420;2022-09-27T08:04:25;97308.28;;;16.87;100.00
53270;BME280;39159;45.634;9.420;2022-09-27T08:06:51;97304.03;;;17.25;97.29
53270;BME280;39159;45.634;9.420;2022-09-27T08:09:16;97307.19;;;17.38;93.87
53270;BME280;39159;45.634;9.420;2022-09-27T08:11:42;97307.22;;;17.52;95.91
53270;BME280;39159;45.634;9.420;2022-09-27T08:14:09;97305.19;;;17.78;94.58
53270;BME280;39159;45.634;9.420;2022-09-27T08:16:35;97298.50;;;18.00;92.92
53270;BME280;39159;45.634;9.420;2022-09-27T08:19:00;97299.63;;;18.28;92.07
53270;BME280;39159;45.634;9.420;2022-09-27T08:21:26;97305.50;;;18.37;85.59
53270;BME280;39159;45.634;9.420;2022-09-27T08:23:51;97299.09;;;18.58;82.97
53270;BME280;39159;45.634;9.420;2022-09-27T08:26:18;97301.41;;;18.78;86.46
53270;BME280;39159;45.634;9.420;2022-09-27T08:28:46;97296.22;;;18.87;82.42
53270;BME280;39159;45.634;9.420;2022-09-27T08:31:12;97300.53;;;18.92;83.10
53270;BME280;39159;45.634;9.420;2022-09-27T08:33:37;97298.09;;;19.08;85.17
53270;BME280;39159;45.634;9.420;2022-09-27T08:36:03;97295.25;;;19.19;83.91
53270;BME280;39159;45.634;9.420;2022-09-27T08:38:29;97300.19;;;18.82;86.33
53270;BME280;39159;45.634;9.420;2022-09-27T08:40:56;97298.09;;;19.08;90.76
53270;BME280;39159;45.634;9.420;2022-09-27T08:44:26;97305.75;;;19.42;88.42
53270;BME280;39159;45.634;9.420;2022-09-27T08:48:57;97304.47;;;19.54;83.35
53270;BME280;39159;45.634;9.420;2022-09-27T08:51:29;97306.16;;;19.89;81.03
53270;BME280;39159;45.634;9.420;2022-09-27T08:54:17;97299.25;;;20.08;80.55
53270;BME280;39159;45.634;9.420;2022-09-27T08:56:46;97293.22;;;20.17;77.80
53270;BME280;39159;45.634;9.420;2022-09-27T08:59:19;97293.91;;;20.28;78.25
53270;BME280;39159;45.634;9.420;2022-09-27T09:01:48;97300.38;;;20.48;78.14
53270;BME280;39159;45.634;9.420;2022-09-27T09:04:25;97293.75;;;20.04;77.26
53270;BME280;39159;45.634;9.420;2022-09-27T09:15:19;97293.09;;;19.90;80.58
53270;BME280;39159;45.634;9.420;2022-09-27T09:21:05;97272.13;;;20.91;75.18
53270;BME280;39159;45.634;9.420;2022-09-27T09:26:22;97282.66;;;20.77;75.46
53270;BME280;39159;45.634;9.420;2022-09-27T09:31:53;97275.72;;;21.43;71.24
53270;BME280;39159;45.634;9.420;2022-09-27T09:34:29;97267.59;;;21.56;71.01
53270;BME280;39159;45.634;9.420;2022-09-27T09:37:04;97269.81;;;21.41;66.24
53270;BME280;39159;45.634;9.420;2022-09-27T09:39:49;97274.25;;;20.80;72.04
53270;BME280;39159;45.634;9.420;2022-09-27T09:42:53;97274.97;;;21.15;72.00
53270;BME280;39159;45.634;9.420;2022-09-27T09:45:27;97281.19;;;20.65;70.65
53270;BME280;39159;45.634;9.420;2022-09-27T09:48:04;97269.28;;;20.34;70.42
53270;BME280;39159;45.634;9.420;2022-09-27T09:50:46;97275.03;;;19.78;73.72
53270;BME280;39159;45.634;9.420;2022-09-27T09:56:13;97269.25;;;20.37;71.66
53270;BME280;39159;45.634;9.420;2022-09-27T09:58:51;97267.88;;;20.53;71.55
53270;BME280;39159;45.634;9.420;2022-09-27T10:01:25;97260.50;;;20.73;71.37
53270;BME280;39159;45.634;9.420;2022-09-27T10:03:53;97262.25;;;20.60;74.21
53270;BME280;39159;45.634;9.420;2022-09-27T10:06:21;97258.91;;;20.41;75.34
53270;BME280;39159;45.634;9.420;2022-09-27T10:08:47;97250.81;;;20.85;73.24
53270;BME280;39159;45.634;9.420;2022-09-27T10:11:46;97257.78;;;21.24;70.43
53270;BME280;39159;45.634;9.420;2022-09-27T10:14:15;97252.16;;;21.04;68.75
53270;BME280;39159;45.634;9.420;2022-09-27T10:16:44;97243.25;;;21.43;70.01
53270;BME280;39159;45.634;9.420;2022-09-27T10:19:18;97249.28;;;21.35;68.73
53270;BME280;39159;45.634;9.420;2022-09-27T10:21:45;97248.16;;;21.56;67.81
53270;BME280;39159;45.634;9.420;2022-09-27T10:24:14;97244.53;;;21.82;68.46
53270;BME280;39159;45.634;9.420;2022-09-27T10:26:42;97256.16;;;21.97;66.61
53270;BME280;39159;45.634;9.420;2022-09-27T10:31:52;97259.16;;;22.30;61.54
53270;BME280;39159;45.634;9.420;2022-09-27T10:34:33;97243.88;;;22.38;60.51
53270;BME280;39159;45.634;9.420;2022-09-27T10:39:37;97242.19;;;22.01;62.26
53270;BME280;39159;45.634;9.420;2022-09-27T10:42:34;97237.53;;;22.38;60.52
53270;BME280;39159;45.634;9.420;2022-09-27T10:45:31;97241.78;;;22.02;64.51
53270;BME280;39159;45.634;9.420;2022-09-27T10:47:58;97243.50;;;22.36;62.46
53270;BME280;39159;45.634;9.420;2022-09-27T10:50:27;97232.41;;;22.36;61.10
53270;BME280;39159;45.634;9.420;2022-09-27T10:53:14;97236.88;;;22.50;63.81
53270;BME280;39159;45.634;9.420;2022-09-27T10:55:46;97233.47;;;22.79;60.93
53270;BME280;39159;45.634;9.420;2022-09-27T10:58:28;97231.09;;;22.97;61.64
53270;BME280;39159;45.634;9.420;2022-09-27T11:00:58;97231.38;;;22.66;60.11
53270;BME280;39159;45.634;9.420;2022-09-27T11:03:28;97232.09;;;22.87;61.51
53270;BME280;39159;45.634;9.420;2022-09-27T11:05:54;97235.72;;;23.04;59.04
53270;BME280;39159;45.634;9.420;2022-09-27T11:08:31;97234.28;;;22.95;57.97
53270;BME280;39159;45.634;9.420;2022-09-27T11:13:37;97230.69;;;23.15;55.86
53270;BME280;39159;45.634;9.420;2022-09-27T11:21:37;97232.59;;;23.18;55.75
53270;BME280;39159;45.634;9.420;2022-09-27T11:34:39;97204.63;;;23.87;52.62
53270;BME280;39159;45.634;9.420;2022-09-27T11:40:07;97205.38;;;23.88;56.60
53270;BME280;39159;45.634;9.420;2022-09-27T11:54:24;97187.88;;;24.04;55.05
53270;BME280;39159;45.634;9.420;2022-09-27T11:59:58;97185.47;;;23.73;53.00
53270;BME280;39159;45.634;9.420;2022-09-27T12:05:12;97178.22;;;23.30;52.41
53270;BME280;39159;45.634;9.420;2022-09-27T12:08:01;97177.31;;;23.04;53.29
53270;BME280;39159;45.634;9.420;2022-09-27T12:10:30;97180.22;;;22.96;54.35
53270;BME280;39159;45.634;9.420;2022-09-27T12:12:56;97176.84;;;23.05;53.36
53270;BME280;39159;45.634;9.420;2022-09-27T12:15:26;97174.78;;;23.09;54.27
53270;BME280;39159;45.634;9.420;2022-09-27T12:18:15;97174.16;;;23.18;52.09
53270;BME280;39159;45.634;9.420;2022-09-27T12:20:46;97172.22;;;23.48;52.63
53270;BME280;39159;45.634;9.420;2022-09-27T12:25:43;97167.88;;;22.97;52.99
53270;BME280;39159;45.634;9.420;2022-09-27T12:30:57;97156.38;;;23.61;52.65
53270;BME280;39159;45.634;9.420;2022-09-27T12:33:36;97157.38;;;23.84;50.17
53270;BME280;39159;45.634;9.420;2022-09-27T12:36:06;97162.75;;;23.74;48.77
53270;BME280;39159;45.634;9.420;2022-09-27T12:41:13;97156.63;;;23.96;50.72
53270;BME280;39159;45.634;9.420;2022-09-27T12:43:44;97158.69;;;23.79;50.80
53270;BME280;39159;45.634;9.420;2022-09-27T12:51:18;97149.50;;;24.08;49.58
53270;BME280;39159;45.634;9.420;2022-09-27T13:00:00;97161.09;;;22.82;49.10
53270;BME280;39159;45.634;9.420;2022-09-27T13:12:58;97153.47;;;23.03;51.01
53270;BME280;39159;45.634;9.420;2022-09-27T13:15:31;97153.13;;;23.17;50.47
53270;BME280;39159;45.634;9.420;2022-09-27T13:17:59;97162.50;;;23.07;48.91
53270;BME280;39159;45.634;9.420;2022-09-27T13:20:39;97159.31;;;23.08;49.06
53270;BME280;39159;45.634;9.420;2022-09-27T13:26:03;97151.28;;;22.77;49.68
53270;BME280;39159;45.634;9.420;2022-09-27T13:34:41;97160.50;;;22.91;49.38
53270;BME280;39159;45.634;9.420;2022-09-27T13:47:46;97161.88;;;22.66;47.55
53270;BME280;39159;45.634;9.420;2022-09-27T13:50:27;97162.22;;;22.68;48.17
53270;BME280;39159;45.634;9.420;2022-09-27T13:55:45;97161.28;;;22.39;47.92
53270;BME280;39159;45.634;9.420;2022-09-27T14:01:00;97161.91;;;22.46;48.56
53270;BME280;39159;45.634;9.420;2022-09-27T14:03:30;97160.34;;;22.45;48.78
53270;BME280;39159;45.634;9.420;2022-09-27T14:05:57;97163.22;;;22.42;50.39
53270;BME280;39159;45.634;9.420;2022-09-27T14:10:54;97160.66;;;22.31;50.57
53270;BME280;39159;45.634;9.420;2022-09-27T14:13:21;97159.22;;;22.23;50.50
53270;BME280;39159;45.634;9.420;2022-09-27T14:15:49;97163.38;;;22.14;48.54
53270;BME280;39159;45.634;9.420;2022-09-27T14:18:16;97156.31;;;22.30;48.27
53270;BME280;39159;45.634;9.420;2022-09-27T14:20:44;97157.66;;;22.42;48.04
53270;BME280;39159;45.634;9.420;2022-09-27T14:23:20;97159.84;;;22.50;48.15
53270;BME280;39159;45.634;9.420;2022-09-27T14:25:47;97160.72;;;22.64;48.85
53270;BME280;39159;45.634;9.420;2022-09-27T14:28:21;97157.94;;;22.64;47.45
53270;BME280;39159;45.634;9.420;2022-09-27T14:30:48;97162.63;;;22.67;47.34
53270;BME280;39159;45.634;9.420;2022-09-27T14:33:31;97156.59;;;22.52;45.67
53270;BME280;39159;45.634;9.420;2022-09-27T14:35:59;97159.31;;;22.55;47.74
53270;BME280;39159;45.634;9.420;2022-09-27T14:38:43;97160.19;;;22.52;46.05
53270;BME280;39159;45.634;9.420;2022-09-27T14:41:09;97156.59;;;22.35;46.84
53270;BME280;39159;45.634;9.420;2022-09-27T14:43:41;97151.91;;;22.32;47.37
53270;BME280;39159;45.634;9.420;2022-09-27T14:46:20;97153.03;;;22.35;48.05
53270;BME280;39159;45.634;9.420;2022-09-27T14:48:47;97156.03;;;22.24;47.78
53270;BME280;39159;45.634;9.420;2022-09-27T14:51:20;97162.13;;;22.15;47.44
53270;BME280;39159;45.634;9.420;2022-09-27T14:53:51;97160.72;;;22.07;47.82
53270;BME280;39159;45.634;9.420;2022-09-27T14:56:24;97168.78;;;22.02;47.61
53270;BME280;39159;45.634;9.420;2022-09-27T14:59:01;97166.22;;;21.91;47.60
53270;BME280;39159;45.634;9.420;2022-09-27T15:01:28;97167.84;;;21.88;47.95
53270;BME280;39159;45.634;9.420;2022-09-27T15:04:02;97172.28;;;21.86;48.20
53270;BME280;39159;45.634;9.420;2022-09-27T15:06:29;97161.63;;;21.81;46.96
53270;BME280;39159;45.634;9.420;2022-09-27T15:08:55;97161.72;;;21.77;46.89
53270;BME280;39159;45.634;9.420;2022-09-27T15:11:20;97163.22;;;21.62;45.42
53270;BME280;39159;45.634;9.420;2022-09-27T15:13:49;97166.63;;;21.69;45.84
53270;BME280;39159;45.634;9.420;2022-09-27T15:16:20;97162.19;;;21.72;46.19
53270;BME280;39159;45.634;9.420;2022-09-27T15:18:49;97171.03;;;21.67;45.62
53270;BME280;39159;45.634;9.420;2022-09-27T15:21:34;97166.25;;;21.67;45.83
53270;BME280;39159;45.634;9.420;2022-09-27T15:24:01;97170.25;;;21.66;46.78
53270;BME280;39159;45.634;9.420;2022-09-27T15:26:43;97168.66;;;21.65;47.10
53270;BME280;39159;45.634;9.420;2022-09-27T15:29:22;97163.13;;;21.65;46.66
53270;BME280;39159;45.634;9.420;2022-09-27T15:32:13;97171.75;;;21.71;47.23
53270;BME280;39159;45.634;9.420;2022-09-27T15:34:40;97169.28;;;21.77;47.44
53270;BME280;39159;45.634;9.420;2022-09-27T15:37:06;97171.34;;;21.72;47.19
53270;BME280;39159;45.634;9.420;2022-09-27T15:39:32;97170.25;;;21.66;47.75
53270;BME280;39159;45.634;9.420;2022-09-27T15:44:51;97172.81;;;21.57;47.37
53270;BME280;39159;45.634;9.420;2022-09-27T15:47:38;97178.13;;;21.48;47.55
53270;BME280;39159;45.634;9.420;2022-09-27T15:52:51;97182.38;;;21.29;49.33
53270;BME280;39159;45.634;9.420;2022-09-27T15:55:19;97184.50;;;21.21;48.20
53270;BME280;39159;45.634;9.420;2022-09-27T15:57:53;97175.38;;;21.21;48.41